createdAt,value
2019-05-23T00:00:45.155Z,1008.95
2019-05-23T00:01:45.130Z,1008.94
2019-05-23T00:02:45.111Z,1008.96
2019-05-23T00:03:45.083Z,1008.97
2019-05-23T00:04:45.060Z,1008.97
2019-05-23T00:05:45.035Z,1008.99
2019-05-23T00:06:45.011Z,1008.95
2019-05-23T00:07:44.986Z,1009
2019-05-23T00:08:44.963Z,1008.95
2019-05-23T00:09:44.938Z,1008.95
2019-05-23T00:10:44.915Z,1008.98
2019-05-23T00:11:44.892Z,1008.98
2019-05-23T00:12:44.866Z,1008.99
2019-05-23T00:13:44.842Z,1008.99
2019-05-23T00:14:44.819Z,1008.98
2019-05-23T00:15:44.794Z,1008.98
2019-05-23T00:16:44.770Z,1008.98
2019-05-23T00:17:44.745Z,1008.97
2019-05-23T00:18:44.722Z,1009.03
2019-05-23T00:19:44.698Z,1009.02
2019-05-23T00:20:44.727Z,1008.99
2019-05-23T00:21:44.650Z,1008.98
2019-05-23T00:22:44.627Z,1008.98
2019-05-23T00:23:44.601Z,1008.99
2019-05-23T00:24:44.579Z,1008.95
2019-05-23T00:25:44.551Z,1008.94
2019-05-23T00:26:44.526Z,1008.96
2019-05-23T00:27:44.504Z,1008.95
2019-05-23T00:28:44.477Z,1008.94
2019-05-23T00:29:44.456Z,1008.94
2019-05-23T00:30:44.432Z,1008.93
2019-05-23T00:31:44.407Z,1008.94
2019-05-23T00:32:44.383Z,1008.94
2019-05-23T00:33:44.356Z,1008.94
2019-05-23T00:34:44.334Z,1008.92
2019-05-23T00:35:44.308Z,1008.9
2019-05-23T00:36:44.283Z,1008.94
2019-05-23T00:37:44.258Z,1008.96
2019-05-23T00:38:44.236Z,1008.95
2019-05-23T00:39:44.211Z,1008.96
2019-05-23T00:40:44.221Z,1008.99
2019-05-23T00:41:44.161Z,1009
2019-05-23T00:42:44.138Z,1008.99
2019-05-23T00:43:44.112Z,1008.99
2019-05-23T00:44:44.148Z,1008.98
2019-05-23T00:45:44.063Z,1009.01
2019-05-23T00:46:44.040Z,1008.99
2019-05-23T00:47:44.024Z,1009
2019-05-23T00:48:43.996Z,1009.01
2019-05-23T00:49:43.969Z,1009.01
2019-05-23T00:50:43.943Z,1009
2019-05-23T00:51:43.917Z,1008.97
2019-05-23T00:52:43.893Z,1009
2019-05-23T00:53:43.868Z,1009
2019-05-23T00:54:43.842Z,1008.99
2019-05-23T00:55:43.891Z,1008.98
2019-05-23T00:56:43.796Z,1008.96
2019-05-23T00:57:43.780Z,1008.98
2019-05-23T00:58:43.787Z,1008.97
2019-05-23T00:59:43.721Z,1008.96
2019-05-23T01:00:43.695Z,1008.98
2019-05-23T01:01:43.673Z,1008.97
2019-05-23T01:02:43.648Z,1008.99
2019-05-23T01:03:43.635Z,1008.98
2019-05-23T01:04:43.598Z,1009
2019-05-23T01:05:43.573Z,1008.94
2019-05-23T01:06:43.547Z,1008.92
2019-05-23T01:07:43.524Z,1008.92
2019-05-23T01:08:43.506Z,1008.92
2019-05-23T01:09:43.474Z,1008.92
2019-05-23T01:10:43.452Z,1008.91
2019-05-23T01:11:43.427Z,1008.91
2019-05-23T01:12:43.402Z,1008.94
2019-05-23T01:13:43.377Z,1008.9
2019-05-23T01:14:43.357Z,1008.9
2019-05-23T01:15:43.326Z,1008.87
2019-05-23T01:16:43.302Z,1008.87
2019-05-23T01:17:43.278Z,1008.91
2019-05-23T01:18:43.252Z,1008.86
2019-05-23T01:19:43.228Z,1008.87
2019-05-23T01:20:43.202Z,1008.88
2019-05-23T01:21:43.181Z,1008.9
2019-05-23T01:22:43.153Z,1008.85
2019-05-23T01:23:43.134Z,1008.88
2019-05-23T01:24:43.138Z,1008.89
2019-05-23T01:25:43.080Z,1008.87
2019-05-23T01:26:43.055Z,1008.87
2019-05-23T01:27:43.029Z,1008.87
2019-05-23T01:28:43.014Z,1008.86
2019-05-23T01:29:42.979Z,1008.86
2019-05-23T01:30:42.956Z,1008.84
2019-05-23T01:31:42.929Z,1008.84
2019-05-23T01:32:42.905Z,1008.85
2019-05-23T01:33:42.882Z,1008.83
2019-05-23T01:34:42.857Z,1008.83
2019-05-23T01:35:42.832Z,1008.87
2019-05-23T01:36:42.807Z,1008.84
2019-05-23T01:37:42.783Z,1008.83
2019-05-23T01:38:42.758Z,1008.82
2019-05-23T01:39:42.733Z,1008.85
2019-05-23T01:40:42.708Z,1008.84
2019-05-23T01:41:42.682Z,1008.85
2019-05-23T01:42:42.656Z,1008.8
2019-05-23T01:43:42.635Z,1008.81
2019-05-23T01:44:42.610Z,1008.85
2019-05-23T01:45:42.583Z,1008.81
2019-05-23T01:46:42.561Z,1008.82
2019-05-23T01:47:42.531Z,1008.82
2019-05-23T01:48:42.514Z,1008.8
2019-05-23T01:49:42.483Z,1008.83
2019-05-23T01:50:42.456Z,1008.83
2019-05-23T01:51:42.438Z,1008.81
2019-05-23T01:52:42.484Z,1008.79
2019-05-23T01:53:42.383Z,1008.79
2019-05-23T01:54:42.358Z,1008.79
2019-05-23T01:55:42.344Z,1008.8
2019-05-23T01:56:42.307Z,1008.82
2019-05-23T01:57:42.283Z,1008.81
2019-05-23T01:58:42.258Z,1008.79
2019-05-23T01:59:42.233Z,1008.8
2019-05-23T02:00:42.208Z,1008.81
2019-05-23T02:01:42.184Z,1008.82
2019-05-23T02:02:42.164Z,1008.78
2019-05-23T02:03:42.133Z,1008.74
2019-05-23T02:04:42.107Z,1008.77
2019-05-23T02:05:42.082Z,1008.76
2019-05-23T02:06:42.055Z,1008.72
2019-05-23T02:07:42.034Z,1008.69
2019-05-23T02:08:42.013Z,1008.69
2019-05-23T02:09:41.980Z,1008.7
2019-05-23T02:10:41.961Z,1008.71
2019-05-23T02:11:41.931Z,1008.68
2019-05-23T02:12:41.906Z,1008.68
2019-05-23T02:13:41.881Z,1008.63
2019-05-23T02:14:41.857Z,1008.67
2019-05-23T02:15:41.829Z,1008.66
2019-05-23T02:16:41.805Z,1008.68
2019-05-23T02:17:41.783Z,1008.62
2019-05-23T02:18:41.753Z,1008.64
2019-05-23T02:19:41.742Z,1008.65
2019-05-23T02:20:41.703Z,1008.67
2019-05-23T02:21:41.677Z,1008.67
2019-05-23T02:22:41.651Z,1008.7
2019-05-23T02:23:41.630Z,1008.72
2019-05-23T02:24:41.602Z,1008.67
2019-05-23T02:25:41.578Z,1008.68
2019-05-23T02:26:41.554Z,1008.69
2019-05-23T02:27:41.528Z,1008.66
2019-05-23T02:28:41.503Z,1008.68
2019-05-23T02:29:41.486Z,1008.64
2019-05-23T02:30:41.451Z,1008.66
2019-05-23T02:31:41.425Z,1008.64
2019-05-23T02:32:41.400Z,1008.63
2019-05-23T02:33:41.375Z,1008.62
2019-05-23T02:34:41.352Z,1008.6
2019-05-23T02:35:41.324Z,1008.59
2019-05-23T02:36:41.298Z,1008.61
2019-05-23T02:37:41.270Z,1008.6
2019-05-23T02:38:41.247Z,1008.59
2019-05-23T02:39:41.246Z,1008.59
2019-05-23T02:40:41.197Z,1008.59
2019-05-23T02:41:41.180Z,1008.59
2019-05-23T02:42:41.144Z,1008.6
2019-05-23T02:43:41.120Z,1008.59
2019-05-23T02:44:41.098Z,1008.61
2019-05-23T02:45:41.072Z,1008.56
2019-05-23T02:46:41.046Z,1008.55
2019-05-23T02:47:42.236Z,1008.55
2019-05-23T02:48:40.991Z,1008.55
2019-05-23T02:49:40.968Z,1008.57
2019-05-23T02:50:40.940Z,1008.56
2019-05-23T02:51:40.916Z,1008.54
2019-05-23T02:52:40.891Z,1008.53
2019-05-23T02:53:40.868Z,1008.52
2019-05-23T02:54:40.921Z,1008.52
2019-05-23T02:55:40.813Z,1008.53
2019-05-23T02:56:40.787Z,1008.52
2019-05-23T02:57:40.764Z,1008.53
2019-05-23T02:58:40.739Z,1008.54
2019-05-23T02:59:40.712Z,1008.55
2019-05-23T03:00:53.060Z,1008.53
2019-05-23T03:01:40.661Z,1008.53
2019-05-23T03:02:40.645Z,1008.5
2019-05-23T03:03:40.609Z,1008.48
2019-05-23T03:04:40.582Z,1008.5
2019-05-23T03:05:40.559Z,1008.47
2019-05-23T03:06:40.530Z,1008.46
2019-05-23T03:07:40.613Z,1008.43
2019-05-23T03:08:40.481Z,1008.42
2019-05-23T03:09:40.477Z,1008.39
2019-05-23T03:10:40.429Z,1008.35
2019-05-23T03:11:40.405Z,1008.38
2019-05-23T03:12:40.387Z,1008.34
2019-05-23T03:13:40.353Z,1008.35
2019-05-23T03:14:40.328Z,1008.38
2019-05-23T03:15:40.300Z,1008.36
2019-05-23T03:16:40.275Z,1008.41
2019-05-23T03:17:40.249Z,1008.4
2019-05-23T03:18:40.224Z,1008.34
2019-05-23T03:19:40.197Z,1008.35
2019-05-23T03:20:40.172Z,1008.33
2019-05-23T03:21:40.150Z,1008.34
2019-05-23T03:22:40.188Z,1008.35
2019-05-23T03:23:40.094Z,1008.33
2019-05-23T03:24:40.067Z,1008.33
2019-05-23T03:25:40.053Z,1008.32
2019-05-23T03:26:40.017Z,1008.29
2019-05-23T03:27:40.015Z,1008.32
2019-05-23T03:28:39.963Z,1008.27
2019-05-23T03:29:39.942Z,1008.27
2019-05-23T03:30:39.917Z,1008.27
2019-05-23T03:31:39.889Z,1008.23
2019-05-23T03:32:40.057Z,1008.24
2019-05-23T03:33:39.841Z,1008.26
2019-05-23T03:34:39.817Z,1008.25
2019-05-23T03:35:39.785Z,1008.25
2019-05-23T03:36:39.757Z,1008.25
2019-05-23T03:37:39.733Z,1008.23
2019-05-23T03:38:39.705Z,1008.24
2019-05-23T03:39:39.681Z,1008.23
2019-05-23T03:40:39.654Z,1008.25
2019-05-23T03:41:39.628Z,1008.24
2019-05-23T03:42:39.602Z,1008.23
2019-05-23T03:43:40.777Z,1008.26
2019-05-23T03:44:39.551Z,1008.24
2019-05-23T03:45:39.867Z,1008.21
2019-05-23T03:46:39.499Z,1008.27
2019-05-23T03:47:39.474Z,1008.23
2019-05-23T03:48:39.449Z,1008.27
2019-05-23T03:49:39.427Z,1008.23
2019-05-23T03:50:39.396Z,1008.24
2019-05-23T03:51:39.371Z,1008.24
2019-05-23T03:52:39.347Z,1008.22
2019-05-23T03:53:39.318Z,1008.17
2019-05-23T03:54:39.292Z,1008.2
2019-05-23T03:55:39.398Z,1008.17
2019-05-23T03:56:39.239Z,1008.15
2019-05-23T03:57:39.214Z,1008.17
2019-05-23T03:58:39.189Z,1008.16
2019-05-23T03:59:39.162Z,1008.16
2019-05-23T04:00:39.138Z,1008.17
2019-05-23T04:01:47.483Z,1008.17
2019-05-23T04:02:39.088Z,1008.15
2019-05-23T04:03:40.213Z,1008.15
2019-05-23T04:04:39.034Z,1008.13
2019-05-23T04:05:39.010Z,1008.14
2019-05-23T04:06:38.983Z,1008.17
2019-05-23T04:07:38.961Z,1008.11
2019-05-23T04:08:38.934Z,1008.19
2019-05-23T04:09:38.908Z,1008.17
2019-05-23T04:10:38.883Z,1008.2
2019-05-23T04:11:38.859Z,1008.19
2019-05-23T04:12:38.829Z,1008.22
2019-05-23T04:13:38.813Z,1008.21
2019-05-23T04:14:38.794Z,1008.19
2019-05-23T04:15:38.754Z,1008.19
2019-05-23T04:16:38.732Z,1008.15
2019-05-23T04:17:38.704Z,1008.15
2019-05-23T04:18:38.679Z,1008.17
2019-05-23T04:19:38.653Z,1008.17
2019-05-23T04:20:38.629Z,1008.19
2019-05-23T04:21:38.675Z,1008.18
2019-05-23T04:22:38.579Z,1008.17
2019-05-23T04:23:38.553Z,1008.18
2019-05-23T04:24:38.529Z,1008.18
2019-05-23T04:25:38.510Z,1008.15
2019-05-23T04:26:38.477Z,1008.17
2019-05-23T04:27:38.453Z,1008.22
2019-05-23T04:28:38.428Z,1008.24
2019-05-23T04:29:38.447Z,1008.22
2019-05-23T04:30:38.378Z,1008.19
2019-05-23T04:31:38.353Z,1008.18
2019-05-23T04:32:38.328Z,1008.2
2019-05-23T04:33:38.306Z,1008.18
2019-05-23T04:34:38.279Z,1008.22
2019-05-23T04:35:38.514Z,1008.19
2019-05-23T04:36:38.231Z,1008.13
2019-05-23T04:37:38.205Z,1008.19
2019-05-23T04:38:38.182Z,1008.18
2019-05-23T04:39:38.156Z,1008.19
2019-05-23T04:40:38.131Z,1008.19
2019-05-23T04:41:38.107Z,1008.19
2019-05-23T04:42:38.091Z,1008.15
2019-05-23T04:43:38.061Z,1008.15
2019-05-23T04:44:38.039Z,1008.16
2019-05-23T04:45:38.013Z,1008.19
2019-05-23T04:46:37.986Z,1008.16
2019-05-23T04:47:37.963Z,1008.17
2019-05-23T04:48:37.938Z,1008.2
2019-05-23T04:49:37.916Z,1008.22
2019-05-23T04:50:37.892Z,1008.18
2019-05-23T04:51:37.866Z,1008.22
2019-05-23T04:52:37.842Z,1008.23
2019-05-23T04:53:37.820Z,1008.24
2019-05-23T04:54:37.794Z,1008.2
2019-05-23T04:55:37.771Z,1008.21
2019-05-23T04:56:37.747Z,1008.23
2019-05-23T04:57:37.724Z,1008.22
2019-05-23T04:58:37.698Z,1008.18
2019-05-23T04:59:37.676Z,1008.17
2019-05-23T05:00:37.653Z,1008.16
2019-05-23T05:01:37.631Z,1008.18
2019-05-23T05:02:37.605Z,1008.17
2019-05-23T05:03:37.581Z,1008.22
2019-05-23T05:04:37.557Z,1008.21
2019-05-23T05:05:37.534Z,1008.17
2019-05-23T05:06:37.511Z,1008.21
2019-05-23T05:07:37.487Z,1008.2
2019-05-23T05:08:37.462Z,1008.18
2019-05-23T05:09:37.441Z,1008.16
2019-05-23T05:10:37.417Z,1008.12
2019-05-23T05:11:37.395Z,1008.12
2019-05-23T05:12:37.373Z,1008.13
2019-05-23T05:13:37.347Z,1008.17
2019-05-23T05:14:37.324Z,1008.13
2019-05-23T05:15:37.302Z,1008.17
2019-05-23T05:16:37.279Z,1008.11
2019-05-23T05:17:37.255Z,1008.14
2019-05-23T05:18:37.229Z,1008.11
2019-05-23T05:19:37.208Z,1008.13
2019-05-23T05:20:37.185Z,1008.17
2019-05-23T05:21:37.161Z,1008.19
2019-05-23T05:22:37.139Z,1008.18
2019-05-23T05:23:37.118Z,1008.2
2019-05-23T05:24:40.076Z,1008.19
2019-05-23T05:25:37.071Z,1008.16
2019-05-23T05:26:37.061Z,1008.18
2019-05-23T05:27:37.024Z,1008.13
2019-05-23T05:28:37.002Z,1008.16
2019-05-23T05:29:36.979Z,1008.16
2019-05-23T05:30:36.956Z,1008.15
2019-05-23T05:31:36.939Z,1008.16
2019-05-23T05:32:44.506Z,1008.17
2019-05-23T05:33:36.918Z,1008.18
2019-05-23T05:34:36.867Z,1008.19
2019-05-23T05:35:36.845Z,1008.21
2019-05-23T05:36:36.831Z,1008.2
2019-05-23T05:37:36.801Z,1008.21
2019-05-23T05:38:36.779Z,1008.2
2019-05-23T05:39:36.757Z,1008.2
2019-05-23T05:40:36.733Z,1008.22
2019-05-23T05:41:36.713Z,1008.26
2019-05-23T05:42:36.690Z,1008.25
2019-05-23T05:43:36.671Z,1008.26
2019-05-23T05:44:36.654Z,1008.22
2019-05-23T05:45:36.625Z,1008.26
2019-05-23T05:46:36.605Z,1008.28
2019-05-23T05:47:36.590Z,1008.26
2019-05-23T05:48:36.560Z,1008.28
2019-05-23T05:49:36.541Z,1008.29
2019-05-23T05:50:36.538Z,1008.28
2019-05-23T05:51:36.497Z,1008.29
2019-05-23T05:52:36.477Z,1008.3
2019-05-23T05:53:36.456Z,1008.25
2019-05-23T05:54:36.434Z,1008.26
2019-05-23T05:55:36.415Z,1008.27
2019-05-23T05:56:36.393Z,1008.26
2019-05-23T05:57:36.372Z,1008.28
2019-05-23T05:58:36.351Z,1008.3
2019-05-23T05:59:36.334Z,1008.33
2019-05-23T06:00:36.313Z,1008.32
2019-05-23T06:01:36.289Z,1008.31
2019-05-23T06:02:36.270Z,1008.3
2019-05-23T06:03:36.260Z,1008.29
2019-05-23T06:04:36.243Z,1008.27
2019-05-23T06:05:36.210Z,1008.32
2019-05-23T06:06:36.189Z,1008.33
2019-05-23T06:07:36.171Z,1008.32
2019-05-23T06:08:36.153Z,1008.3
2019-05-23T06:09:36.309Z,1008.32
2019-05-23T06:10:36.118Z,1008.3
2019-05-23T06:11:36.095Z,1008.35
2019-05-23T06:12:36.073Z,1008.32
2019-05-23T06:13:36.054Z,1008.33
2019-05-23T06:14:36.037Z,1008.32
2019-05-23T06:15:36.021Z,1008.29
2019-05-23T06:16:35.999Z,1008.27
2019-05-23T06:17:35.983Z,1008.32
2019-05-23T06:18:35.962Z,1008.26
2019-05-23T06:19:35.944Z,1008.34
2019-05-23T06:20:35.979Z,1008.27
2019-05-23T06:21:35.935Z,1008.29
2019-05-23T06:22:36.326Z,1008.28
2019-05-23T06:23:36.146Z,1008.3
2019-05-23T06:24:45.850Z,1008.25
2019-05-23T06:25:35.853Z,1008.25
2019-05-23T06:26:36.215Z,1008.24
2019-05-23T06:27:35.822Z,1008.28
2019-05-23T06:28:35.787Z,1008.26
2019-05-23T06:29:35.765Z,1008.31
2019-05-23T06:30:35.748Z,1008.3
2019-05-23T06:31:35.746Z,1008.28
2019-05-23T06:32:35.719Z,1008.33
2019-05-23T06:33:35.704Z,1008.28
2019-05-23T06:34:35.705Z,1008.3
2019-05-23T06:35:35.665Z,1008.27
2019-05-23T06:36:35.741Z,1008.3
2019-05-23T06:37:35.740Z,1008.3
2019-05-23T06:38:35.704Z,1008.28
2019-05-23T06:39:35.607Z,1008.26
2019-05-23T06:40:35.594Z,1008.24
2019-05-23T06:41:35.573Z,1008.28
2019-05-23T06:42:35.559Z,1008.28
2019-05-23T06:43:35.545Z,1008.27
2019-05-23T06:44:35.545Z,1008.28
2019-05-23T06:45:35.517Z,1008.28
2019-05-23T06:46:35.506Z,1008.26
2019-05-23T06:47:35.490Z,1008.28
2019-05-23T06:48:35.477Z,1008.28
2019-05-23T06:49:35.464Z,1008.28
2019-05-23T06:50:35.449Z,1008.27
2019-05-23T06:51:35.541Z,1008.28
2019-05-23T06:52:35.424Z,1008.28
2019-05-23T06:53:35.410Z,1008.27
2019-05-23T06:54:35.395Z,1008.33
2019-05-23T06:55:35.383Z,1008.33
2019-05-23T06:56:35.366Z,1008.33
2019-05-23T06:57:35.432Z,1008.34
2019-05-23T06:58:35.505Z,1008.31
2019-05-23T06:59:35.326Z,1008.37
2019-05-23T07:00:35.315Z,1008.34
2019-05-23T07:01:35.299Z,1008.36
2019-05-23T07:02:35.286Z,1008.3
2019-05-23T07:03:42.112Z,1008.32
2019-05-23T07:04:35.260Z,1008.33
2019-05-23T07:05:35.244Z,1008.35
2019-05-23T07:06:35.231Z,1008.33
2019-05-23T07:07:35.300Z,1008.32
2019-05-23T07:08:35.204Z,1008.35
2019-05-23T07:09:35.443Z,1008.3
2019-05-23T07:10:35.413Z,1008.26
2019-05-23T07:11:35.165Z,1008.28
2019-05-23T07:12:35.338Z,1008.28
2019-05-23T07:13:35.139Z,1008.26
2019-05-23T07:14:35.125Z,1008.27
2019-05-23T07:15:35.114Z,1008.22
2019-05-23T07:16:35.100Z,1008.25
2019-05-23T07:17:35.087Z,1008.25
2019-05-23T07:18:35.074Z,1008.28
2019-05-23T07:19:35.063Z,1008.16
2019-05-23T07:20:35.052Z,1008.24
2019-05-23T07:21:35.037Z,1008.24
2019-05-23T07:22:35.025Z,1008.24
2019-05-23T07:23:35.443Z,1008.24
2019-05-23T07:24:35.001Z,1008.25
2019-05-23T07:25:34.988Z,1008.28
2019-05-23T07:26:34.978Z,1008.31
2019-05-23T07:27:34.990Z,1008.29
2019-05-23T07:28:34.953Z,1008.3
2019-05-23T07:29:34.941Z,1008.32
2019-05-23T07:30:34.928Z,1008.31
2019-05-23T07:31:35.706Z,1008.32
2019-05-23T07:32:34.904Z,1008.31
2019-05-23T07:33:35.319Z,1008.34
2019-05-23T07:34:34.881Z,1008.27
2019-05-23T07:35:35.167Z,1008.26
2019-05-23T07:36:34.896Z,1008.28
2019-05-23T07:37:34.848Z,1008.27
2019-05-23T07:38:34.841Z,1008.26
2019-05-23T07:39:34.825Z,1008.23
2019-05-23T07:40:34.815Z,1008.25
2019-05-23T07:41:34.804Z,1008.26
2019-05-23T07:42:34.793Z,1008.25
2019-05-23T07:43:34.785Z,1008.24
2019-05-23T07:44:47.333Z,1008.27
2019-05-23T07:45:34.763Z,1008.26
2019-05-23T07:46:34.750Z,1008.23
2019-05-23T07:47:34.739Z,1008.26
2019-05-23T07:48:34.727Z,1008.24
2019-05-23T07:49:34.754Z,1008.25
2019-05-23T07:50:34.707Z,1008.28
2019-05-23T07:51:34.974Z,1008.25
2019-05-23T07:52:34.960Z,1008.28
2019-05-23T07:53:35.214Z,1008.23
2019-05-23T07:54:34.667Z,1008.24
2019-05-23T07:55:34.938Z,1008.22
2019-05-23T07:56:34.903Z,1008.23
2019-05-23T07:57:34.637Z,1008.2
2019-05-23T07:58:34.910Z,1008.19
2019-05-23T07:59:34.618Z,1008.23
2019-05-23T08:00:34.608Z,1008.22
2019-05-23T08:01:34.598Z,1008.23
2019-05-23T08:02:34.588Z,1008.23
2019-05-23T08:03:34.578Z,1008.23
2019-05-23T08:04:34.572Z,1008.2
2019-05-23T08:05:34.566Z,1008.19
2019-05-23T08:06:34.551Z,1008.2
2019-05-23T08:07:34.541Z,1008.17
2019-05-23T08:08:34.532Z,1008.16
2019-05-23T08:09:34.526Z,1008.17
2019-05-23T08:10:34.741Z,1008.16
2019-05-23T08:11:34.504Z,1008.2
2019-05-23T08:12:34.499Z,1008.23
2019-05-23T08:13:34.487Z,1008.2
2019-05-23T08:14:34.475Z,1008.1
2019-05-23T08:15:34.470Z,1008.13
2019-05-23T08:16:34.462Z,1008.15
2019-05-23T08:17:34.447Z,1008.13
2019-05-23T08:18:34.450Z,1008.13
2019-05-23T08:19:48.470Z,1008.14
2019-05-23T08:20:34.421Z,1008.13
2019-05-23T08:21:34.414Z,1008.11
2019-05-23T08:22:34.405Z,1008.12
2019-05-23T08:23:34.400Z,1008.13
2019-05-23T08:24:34.390Z,1008.11
2019-05-23T08:25:34.471Z,1008.16
2019-05-23T08:26:34.372Z,1008.13
2019-05-23T08:27:34.401Z,1008.13
2019-05-23T08:28:34.394Z,1008.17
2019-05-23T08:29:34.557Z,1008.18
2019-05-23T08:30:34.438Z,1008.16
2019-05-23T08:31:34.357Z,1008.16
2019-05-23T08:32:34.536Z,1008.22
2019-05-23T08:33:34.315Z,1008.19
2019-05-23T08:34:41.116Z,1008.2
2019-05-23T08:35:34.297Z,1008.19
2019-05-23T08:36:34.291Z,1008.2
2019-05-23T08:37:34.282Z,1008.15
2019-05-23T08:38:34.275Z,1008.16
2019-05-23T08:39:34.324Z,1008.12
2019-05-23T08:40:34.387Z,1008.13
2019-05-23T08:41:34.253Z,1008.18
2019-05-23T08:42:34.246Z,1008.11
2019-05-23T08:43:34.238Z,1008.1
2019-05-23T08:44:34.231Z,1008.12
2019-05-23T08:45:34.226Z,1008.14
2019-05-23T08:46:34.217Z,1008.16
2019-05-23T08:47:34.210Z,1008.12
2019-05-23T08:48:34.202Z,1008.13
2019-05-23T08:49:34.194Z,1008.09
2019-05-23T08:50:34.206Z,1008.09
2019-05-23T08:51:34.179Z,1008.08
2019-05-23T08:52:34.171Z,1008.09
2019-05-23T08:53:34.179Z,1008.08
2019-05-23T08:54:34.158Z,1008.04
2019-05-23T08:55:34.148Z,1008.04
2019-05-23T08:56:34.141Z,1008.02
2019-05-23T08:57:34.149Z,1008.06
2019-05-23T08:58:34.124Z,1008.05
2019-05-23T08:59:34.124Z,1008.04
2019-05-23T09:00:34.112Z,1008.09
2019-05-23T09:01:34.103Z,1008.04
2019-05-23T09:02:34.101Z,1008.04
2019-05-23T09:03:34.093Z,1008.08
2019-05-23T09:04:34.081Z,1008.06
2019-05-23T09:05:34.075Z,1008.03
2019-05-23T09:06:34.071Z,1007.96
2019-05-23T09:07:34.061Z,1007.97
2019-05-23T09:08:34.066Z,1007.99
2019-05-23T09:09:34.044Z,1007.99
2019-05-23T09:10:34.069Z,1007.96
2019-05-23T09:11:34.031Z,1007.94
2019-05-23T09:12:34.024Z,1007.9
2019-05-23T09:13:34.018Z,1007.94
2019-05-23T09:14:34.011Z,1007.92
2019-05-23T09:15:34.005Z,1007.88
2019-05-23T09:16:33.998Z,1007.88
2019-05-23T09:17:51.293Z,1007.87
2019-05-23T09:18:33.990Z,1007.86
2019-05-23T09:19:33.994Z,1007.89
2019-05-23T09:20:33.978Z,1007.89
2019-05-23T09:21:33.984Z,1007.85
2019-05-23T09:22:33.964Z,1007.87
2019-05-23T09:23:34.141Z,1007.9
2019-05-23T09:24:34.156Z,1007.87
2019-05-23T09:25:34.555Z,1007.93
2019-05-23T09:26:34.002Z,1007.92
2019-05-23T09:27:34.766Z,1007.91
2019-05-23T09:28:34.160Z,1007.88
2019-05-23T09:29:33.996Z,1007.85
2019-05-23T09:30:35.658Z,1007.9
2019-05-23T09:31:34.096Z,1007.87
2019-05-23T09:32:33.968Z,1007.85
2019-05-23T09:33:33.997Z,1007.87
2019-05-23T09:34:33.900Z,1007.84
2019-05-23T09:35:33.894Z,1007.85
2019-05-23T09:36:33.892Z,1007.86
2019-05-23T09:37:33.883Z,1007.8
2019-05-23T09:38:33.877Z,1007.84
2019-05-23T09:39:33.873Z,1007.85
2019-05-23T09:40:33.867Z,1007.8
2019-05-23T09:41:33.862Z,1007.85
2019-05-23T09:42:33.858Z,1007.87
2019-05-23T09:43:33.852Z,1007.83
2019-05-23T09:44:33.847Z,1007.93
2019-05-23T09:45:33.841Z,1007.87
2019-05-23T09:46:33.836Z,1007.83
2019-05-23T09:47:33.831Z,1007.79
2019-05-23T09:48:33.826Z,1007.79
2019-05-23T09:49:33.819Z,1007.82
2019-05-23T09:50:33.814Z,1007.84
2019-05-23T09:51:33.831Z,1007.79
2019-05-23T09:52:33.802Z,1007.83
2019-05-23T09:53:33.796Z,1007.87
2019-05-23T09:54:33.793Z,1007.84
2019-05-23T09:55:33.787Z,1007.83
2019-05-23T09:56:33.783Z,1007.79
2019-05-23T09:57:33.781Z,1007.71
2019-05-23T09:58:33.771Z,1007.7
2019-05-23T09:59:33.766Z,1007.75
2019-05-23T10:00:33.760Z,1007.73
2019-05-23T10:01:33.839Z,1007.74
2019-05-23T10:02:33.749Z,1007.73
2019-05-23T10:03:33.745Z,1007.71
2019-05-23T10:04:33.909Z,1007.73
2019-05-23T10:05:42.471Z,1007.69
2019-05-23T10:06:33.736Z,1007.71
2019-05-23T10:07:33.726Z,1007.67
2019-05-23T10:08:33.720Z,1007.74
2019-05-23T10:09:33.720Z,1007.69
2019-05-23T10:10:33.709Z,1007.66
2019-05-23T10:11:33.705Z,1007.74
2019-05-23T10:12:33.702Z,1007.7
2019-05-23T10:13:38.852Z,1007.68
2019-05-23T10:14:33.692Z,1007.69
2019-05-23T10:15:33.717Z,1007.66
2019-05-23T10:16:33.682Z,1007.65
2019-05-23T10:17:33.702Z,1007.68
2019-05-23T10:18:33.672Z,1007.66
2019-05-23T10:19:33.669Z,1007.72
2019-05-23T10:20:33.663Z,1007.68
2019-05-23T10:21:33.658Z,1007.59
2019-05-23T10:22:33.653Z,1007.62
2019-05-23T10:23:33.646Z,1007.53
2019-05-23T10:24:33.640Z,1007.66
2019-05-23T10:25:33.632Z,1007.59
2019-05-23T10:26:33.629Z,1007.62
2019-05-23T10:27:33.623Z,1007.58
2019-05-23T10:28:33.612Z,1007.67
2019-05-23T10:29:33.610Z,1007.64
2019-05-23T10:30:33.622Z,1007.6
2019-05-23T10:31:33.597Z,1007.57
2019-05-23T10:32:33.583Z,1007.61
2019-05-23T10:33:33.574Z,1007.65
2019-05-23T10:34:33.569Z,1007.59
2019-05-23T10:35:33.559Z,1007.6
2019-05-23T10:36:33.565Z,1007.58
2019-05-23T10:37:33.545Z,1007.55
2019-05-23T10:38:33.538Z,1007.54
2019-05-23T10:39:33.530Z,1007.5
2019-05-23T10:40:33.525Z,1007.44
2019-05-23T10:41:33.515Z,1007.42
2019-05-23T10:42:33.510Z,1007.41
2019-05-23T10:43:33.501Z,1007.4
2019-05-23T10:44:33.497Z,1007.36
2019-05-23T10:45:33.489Z,1007.35
2019-05-23T10:46:33.483Z,1007.44
2019-05-23T10:47:33.478Z,1007.42
2019-05-23T10:48:33.470Z,1007.37
2019-05-23T10:49:33.465Z,1007.36
2019-05-23T10:50:43.992Z,1007.3
2019-05-23T10:51:33.452Z,1007.32
2019-05-23T10:52:33.455Z,1007.34
2019-05-23T10:53:33.444Z,1007.32
2019-05-23T10:54:33.436Z,1007.35
2019-05-23T10:55:33.433Z,1007.22
2019-05-23T10:56:33.435Z,1007.25
2019-05-23T10:57:33.450Z,1007.29
2019-05-23T10:58:33.647Z,1007.31
2019-05-23T10:59:33.557Z,1007.31
2019-05-23T11:00:33.770Z,1007.32
2019-05-23T11:01:33.661Z,1007.28
2019-05-23T11:02:33.399Z,1007.22
2019-05-23T11:03:33.465Z,1007.27
2019-05-23T11:04:33.389Z,1007.25
2019-05-23T11:05:33.490Z,1007.21
2019-05-23T11:06:33.640Z,1007.22
2019-05-23T11:07:33.377Z,1007.22
2019-05-23T11:08:33.372Z,1007.28
2019-05-23T11:09:37.617Z,1007.2
2019-05-23T11:10:33.365Z,1007.15
2019-05-23T11:11:33.368Z,1007.16
2019-05-23T11:12:33.354Z,1007.1
2019-05-23T11:13:33.353Z,1007.15
2019-05-23T11:14:33.402Z,1007.14
2019-05-23T11:15:33.385Z,1007.09
2019-05-23T11:16:33.353Z,1007.04
2019-05-23T11:17:33.340Z,1007.08
2019-05-23T11:18:33.334Z,1007.04
2019-05-23T11:19:33.480Z,1007.11
2019-05-23T11:20:35.937Z,1007.05
2019-05-23T11:21:33.477Z,1007.08
2019-05-23T11:22:33.462Z,1007.01
2019-05-23T11:23:33.358Z,1006.99
2019-05-23T11:24:33.357Z,1006.98
2019-05-23T11:25:33.313Z,1007.07
2019-05-23T11:26:33.295Z,1007.07
2019-05-23T11:27:33.291Z,1007.1
2019-05-23T11:28:33.294Z,1007.07
2019-05-23T11:29:33.283Z,1007.01
2019-05-23T11:30:33.277Z,1006.95
2019-05-23T11:31:33.277Z,1006.97
2019-05-23T11:32:33.269Z,1006.96
2019-05-23T11:33:33.266Z,1006.92
2019-05-23T11:34:33.263Z,1006.97
2019-05-23T11:35:33.265Z,1006.96
2019-05-23T11:36:35.957Z,1006.92
2019-05-23T11:37:33.250Z,1006.95
2019-05-23T11:38:33.247Z,1006.98
2019-05-23T11:39:33.282Z,1006.96
2019-05-23T11:40:33.881Z,1006.96
2019-05-23T11:41:33.237Z,1007.02
2019-05-23T11:42:33.231Z,1006.9
2019-05-23T11:43:33.228Z,1006.91
2019-05-23T11:44:33.223Z,1006.88
2019-05-23T11:45:33.219Z,1006.84
2019-05-23T11:46:33.266Z,1006.86
2019-05-23T11:47:33.213Z,1006.89
2019-05-23T11:48:33.215Z,1006.87
2019-05-23T11:49:33.211Z,1006.88
2019-05-23T11:50:33.203Z,1006.91
2019-05-23T11:51:33.201Z,1006.87
2019-05-23T11:52:33.198Z,1006.87
2019-05-23T11:53:33.198Z,1006.86
2019-05-23T11:54:33.205Z,1006.8
2019-05-23T11:55:33.223Z,1006.82
2019-05-23T11:56:33.197Z,1006.81
2019-05-23T11:57:37.153Z,1006.83
2019-05-23T11:58:33.245Z,1006.8
2019-05-23T11:59:33.187Z,1006.74
2019-05-23T12:00:33.180Z,1006.76
2019-05-23T12:01:33.173Z,1006.77
2019-05-23T12:02:33.174Z,1006.81
2019-05-23T12:03:33.164Z,1006.8
2019-05-23T12:04:33.164Z,1006.76
2019-05-23T12:05:33.163Z,1006.74
2019-05-23T12:06:33.161Z,1006.82
2019-05-23T12:07:33.157Z,1006.78
2019-05-23T12:08:33.156Z,1006.74